sensor_id;sensor_type;location;lat;lon;timestamp;P1;durP1;ratioP1;P2;durP2;ratioP2
70444;SDS011;57902;49.638;11.070;2023-02-28T00:01:21;8.00;;;2.53;;
70444;SDS011;57902;49.638;11.070;2023-02-28T00:03:48;8.73;;;2.85;;
70444;SDS011;57902;49.638;11.070;2023-02-28T00:06:15;7.18;;;2.30;;
70444;SDS011;57902;49.638;11.070;2023-02-28T00:08:41;6.20;;;2.30;;
70444;SDS011;57902;49.638;11.070;2023-02-28T00:11:11;6.20;;;2.28;;
70444;SDS011;57902;49.638;11.070;2023-02-28T00:13:40;7.40;;;2.75;;
70444;SDS011;57902;49.638;11.070;2023-02-28T00:16:11;5.60;;;2.17;;
70444;SDS011;57902;49.638;11.070;2023-02-28T00:18:39;6.32;;;2.70;;
70444;SDS011;57902;49.638;11.070;2023-02-28T00:21:07;9.60;;;4.05;;
70444;SDS011;57902;49.638;11.070;2023-02-28T00:23:33;12.40;;;4.70;;
70444;SDS011;57902;49.638;11.070;2023-02-28T00:26:00;8.98;;;3.47;;
70444;SDS011;57902;49.638;11.070;2023-02-28T00:28:26;11.27;;;4.70;;
70444;SDS011;57902;49.638;11.070;2023-02-28T00:30:53;6.95;;;2.55;;
70444;SDS011;57902;49.638;11.070;2023-02-28T00:33:20;6.97;;;2.83;;
70444;SDS011;57902;49.638;11.070;2023-02-28T00:35:46;7.93;;;2.72;;
70444;SDS011;57902;49.638;11.070;2023-02-28T00:38:13;7.35;;;2.67;;
70444;SDS011;57902;49.638;11.070;2023-02-28T00:40:40;6.18;;;2.30;;
70444;SDS011;57902;49.638;11.070;2023-02-28T00:43:07;7.18;;;2.17;;
70444;SDS011;57902;49.638;11.070;2023-02-28T00:45:33;6.90;;;2.70;;
70444;SDS011;57902;49.638;11.070;2023-02-28T00:48:00;6.63;;;2.33;;
70444;SDS011;57902;49.638;11.070;2023-02-28T00:50:26;6.78;;;2.10;;
70444;SDS011;57902;49.638;11.070;2023-02-28T00:52:53;5.18;;;1.95;;
70444;SDS011;57902;49.638;11.070;2023-02-28T00:55:19;5.28;;;2.28;;
70444;SDS011;57902;49.638;11.070;2023-02-28T00:57:46;6.80;;;2.30;;
70444;SDS011;57902;49.638;11.070;2023-02-28T01:00:12;4.25;;;1.90;;
70444;SDS011;57902;49.638;11.070;2023-02-28T01:02:39;8.20;;;2.90;;
70444;SDS011;57902;49.638;11.070;2023-02-28T01:05:05;8.15;;;2.97;;
70444;SDS011;57902;49.638;11.070;2023-02-28T01:07:32;6.97;;;2.50;;
70444;SDS011;57902;49.638;11.070;2023-02-28T01:09:59;6.45;;;2.30;;
70444;SDS011;57902;49.638;11.070;2023-02-28T01:12:25;7.55;;;2.88;;
70444;SDS011;57902;49.638;11.070;2023-02-28T01:14:53;5.78;;;2.30;;
70444;SDS011;57902;49.638;11.070;2023-02-28T01:17:19;6.78;;;2.67;;
70444;SDS011;57902;49.638;11.070;2023-02-28T01:19:45;6.88;;;2.50;;
70444;SDS011;57902;49.638;11.070;2023-02-28T01:22:12;5.65;;;2.55;;
70444;SDS011;57902;49.638;11.070;2023-02-28T01:24:38;8.13;;;2.67;;
70444;SDS011;57902;49.638;11.070;2023-02-28T01:27:05;6.35;;;2.42;;
70444;SDS011;57902;49.638;11.070;2023-02-28T01:29:31;5.78;;;2.15;;
70444;SDS011;57902;49.638;11.070;2023-02-28T01:31:57;8.23;;;2.70;;
70444;SDS011;57902;49.638;11.070;2023-02-28T01:34:25;6.55;;;2.60;;
70444;SDS011;57902;49.638;11.070;2023-02-28T01:36:52;8.93;;;2.53;;
70444;SDS011;57902;49.638;11.070;2023-02-28T01:39:18;7.03;;;2.60;;
70444;SDS011;57902;49.638;11.070;2023-02-28T01:41:45;28.05;;;11.95;;
70444;SDS011;57902;49.638;11.070;2023-02-28T01:47:15;10.18;;;3.03;;
70444;SDS011;57902;49.638;11.070;2023-02-28T01:49:42;9.52;;;3.92;;
70444;SDS011;57902;49.638;11.070;2023-02-28T01:52:09;7.97;;;3.10;;
70444;SDS011;57902;49.638;11.070;2023-02-28T01:54:41;8.57;;;3.22;;
70444;SDS011;57902;49.638;11.070;2023-02-28T01:57:09;6.40;;;2.50;;
70444;SDS011;57902;49.638;11.070;2023-02-28T01:59:39;5.68;;;2.33;;
70444;SDS011;57902;49.638;11.070;2023-02-28T02:02:30;7.43;;;2.50;;
70444;SDS011;57902;49.638;11.070;2023-02-28T02:04:59;6.97;;;2.45;;
70444;SDS011;57902;49.638;11.070;2023-02-28T02:07:29;6.53;;;2.30;;
70444;SDS011;57902;49.638;11.070;2023-02-28T02:10:00;7.60;;;2.70;;
70444;SDS011;57902;49.638;11.070;2023-02-28T02:12:36;6.97;;;2.80;;
70444;SDS011;57902;49.638;11.070;2023-02-28T02:17:56;5.57;;;2.33;;
70444;SDS011;57902;49.638;11.070;2023-02-28T02:23:39;7.32;;;2.28;;
70444;SDS011;57902;49.638;11.070;2023-02-28T02:26:33;7.95;;;2.53;;
70444;SDS011;57902;49.638;11.070;2023-02-28T02:35:29;6.80;;;2.65;;
70444;SDS011;57902;49.638;11.070;2023-02-28T02:38:10;5.68;;;2.33;;
70444;SDS011;57902;49.638;11.070;2023-02-28T02:41:04;11.45;;;3.50;;
70444;SDS011;57902;49.638;11.070;2023-02-28T02:49:05;5.53;;;2.08;;
70444;SDS011;57902;49.638;11.070;2023-02-28T02:51:35;8.35;;;2.80;;
70444;SDS011;57902;49.638;11.070;2023-02-28T02:54:13;7.55;;;3.28;;
70444;SDS011;57902;49.638;11.070;2023-02-28T02:56:44;9.05;;;2.60;;
70444;SDS011;57902;49.638;11.070;2023-02-28T02:59:15;10.10;;;2.92;;
70444;SDS011;57902;49.638;11.070;2023-02-28T03:01:53;10.48;;;3.17;;
70444;SDS011;57902;49.638;11.070;2023-02-28T03:04:24;7.88;;;3.03;;
70444;SDS011;57902;49.638;11.070;2023-02-28T03:06:53;7.60;;;2.60;;
70444;SDS011;57902;49.638;11.070;2023-02-28T03:09:21;6.72;;;2.53;;
70444;SDS011;57902;49.638;11.070;2023-02-28T03:11:49;7.88;;;2.60;;
70444;SDS011;57902;49.638;11.070;2023-02-28T03:20:01;7.45;;;2.92;;
70444;SDS011;57902;49.638;11.070;2023-02-28T03:22:38;6.80;;;2.58;;
70444;SDS011;57902;49.638;11.070;2023-02-28T03:25:29;10.80;;;3.30;;
70444;SDS011;57902;49.638;11.070;2023-02-28T03:28:12;6.20;;;2.58;;
70444;SDS011;57902;49.638;11.070;2023-02-28T03:30:45;6.80;;;2.50;;
70444;SDS011;57902;49.638;11.070;2023-02-28T03:33:36;7.55;;;2.63;;
70444;SDS011;57902;49.638;11.070;2023-02-28T03:36:11;8.05;;;2.40;;
70444;SDS011;57902;49.638;11.070;2023-02-28T03:38:46;6.28;;;2.53;;
70444;SDS011;57902;49.638;11.070;2023-02-28T03:41:30;6.85;;;2.83;;
70444;SDS011;57902;49.638;11.070;2023-02-28T03:44:20;6.70;;;2.70;;
70444;SDS011;57902;49.638;11.070;2023-02-28T03:46:52;7.03;;;2.90;;
70444;SDS011;57902;49.638;11.070;2023-02-28T03:49:27;8.32;;;2.60;;
70444;SDS011;57902;49.638;11.070;2023-02-28T03:51:59;6.53;;;2.55;;
70444;SDS011;57902;49.638;11.070;2023-02-28T03:54:30;9.65;;;2.90;;
70444;SDS011;57902;49.638;11.070;2023-02-28T03:57:07;6.78;;;2.70;;
70444;SDS011;57902;49.638;11.070;2023-02-28T03:59:46;6.90;;;2.65;;
70444;SDS011;57902;49.638;11.070;2023-02-28T04:02:16;7.07;;;2.90;;
70444;SDS011;57902;49.638;11.070;2023-02-28T04:04:44;8.02;;;2.72;;
70444;SDS011;57902;49.638;11.070;2023-02-28T04:07:15;8.80;;;3.10;;
70444;SDS011;57902;49.638;11.070;2023-02-28T04:09:42;6.72;;;2.58;;
70444;SDS011;57902;49.638;11.070;2023-02-28T04:12:08;9.45;;;2.75;;
70444;SDS011;57902;49.638;11.070;2023-02-28T04:14:35;10.65;;;3.42;;
70444;SDS011;57902;49.638;11.070;2023-02-28T04:17:01;7.72;;;3.03;;
70444;SDS011;57902;49.638;11.070;2023-02-28T04:19:28;12.48;;;4.65;;
70444;SDS011;57902;49.638;11.070;2023-02-28T04:21:54;14.18;;;4.90;;
70444;SDS011;57902;49.638;11.070;2023-02-28T04:24:22;10.85;;;3.55;;
70444;SDS011;57902;49.638;11.070;2023-02-28T04:26:52;8.77;;;4.38;;
70444;SDS011;57902;49.638;11.070;2023-02-28T04:29:21;9.55;;;4.15;;
70444;SDS011;57902;49.638;11.070;2023-02-28T04:31:49;9.95;;;3.95;;
70444;SDS011;57902;49.638;11.070;2023-02-28T04:34:16;10.02;;;3.90;;
70444;SDS011;57902;49.638;11.070;2023-02-28T04:36:45;7.10;;;3.13;;
70444;SDS011;57902;49.638;11.070;2023-02-28T04:39:12;8.35;;;3.30;;
70444;SDS011;57902;49.638;11.070;2023-02-28T04:41:38;8.27;;;3.33;;
70444;SDS011;57902;49.638;11.070;2023-02-28T04:44:05;8.95;;;3.35;;
70444;SDS011;57902;49.638;11.070;2023-02-28T04:46:31;7.95;;;3.15;;
70444;SDS011;57902;49.638;11.070;2023-02-28T04:48:57;8.50;;;3.20;;
70444;SDS011;57902;49.638;11.070;2023-02-28T04:51:25;8.80;;;3.78;;
70444;SDS011;57902;49.638;11.070;2023-02-28T04:53:51;8.45;;;3.40;;
70444;SDS011;57902;49.638;11.070;2023-02-28T04:56:18;9.50;;;3.50;;
70444;SDS011;57902;49.638;11.070;2023-02-28T04:58:45;7.93;;;3.70;;
70444;SDS011;57902;49.638;11.070;2023-02-28T05:01:16;22.48;;;7.53;;
70444;SDS011;57902;49.638;11.070;2023-02-28T05:03:50;10.48;;;3.70;;
70444;SDS011;57902;49.638;11.070;2023-02-28T05:06:17;8.60;;;3.42;;
70444;SDS011;57902;49.638;11.070;2023-02-28T05:08:45;13.95;;;4.00;;
70444;SDS011;57902;49.638;11.070;2023-02-28T05:11:33;11.98;;;4.13;;
70444;SDS011;57902;49.638;11.070;2023-02-28T05:14:02;12.55;;;4.38;;
70444;SDS011;57902;49.638;11.070;2023-02-28T05:16:30;13.40;;;4.60;;
70444;SDS011;57902;49.638;11.070;2023-02-28T05:18:57;12.98;;;4.55;;
70444;SDS011;57902;49.638;11.070;2023-02-28T05:21:26;9.93;;;4.07;;
70444;SDS011;57902;49.638;11.070;2023-02-28T05:23:55;11.90;;;4.70;;
70444;SDS011;57902;49.638;11.070;2023-02-28T05:26:23;12.88;;;4.90;;
70444;SDS011;57902;49.638;11.070;2023-02-28T05:28:50;10.85;;;4.20;;
70444;SDS011;57902;49.638;11.070;2023-02-28T05:31:17;11.57;;;3.75;;
70444;SDS011;57902;49.638;11.070;2023-02-28T05:33:44;15.88;;;5.95;;
70444;SDS011;57902;49.638;11.070;2023-02-28T05:36:10;15.88;;;6.10;;
70444;SDS011;57902;49.638;11.070;2023-02-28T05:38:37;14.95;;;6.00;;
70444;SDS011;57902;49.638;11.070;2023-02-28T05:41:04;14.82;;;5.75;;
70444;SDS011;57902;49.638;11.070;2023-02-28T05:43:32;10.73;;;3.70;;
70444;SDS011;57902;49.638;11.070;2023-02-28T05:45:58;10.13;;;4.05;;
70444;SDS011;57902;49.638;11.070;2023-02-28T05:48:25;11.40;;;4.30;;
70444;SDS011;57902;49.638;11.070;2023-02-28T05:50:52;13.73;;;5.45;;
70444;SDS011;57902;49.638;11.070;2023-02-28T05:53:18;12.52;;;4.70;;
70444;SDS011;57902;49.638;11.070;2023-02-28T05:55:45;17.83;;;6.53;;
70444;SDS011;57902;49.638;11.070;2023-02-28T05:58:11;16.98;;;6.80;;
70444;SDS011;57902;49.638;11.070;2023-02-28T06:00:37;16.23;;;6.90;;
70444;SDS011;57902;49.638;11.070;2023-02-28T06:03:07;15.18;;;6.63;;
70444;SDS011;57902;49.638;11.070;2023-02-28T06:05:33;12.80;;;4.68;;
70444;SDS011;57902;49.638;11.070;2023-02-28T06:08:00;11.18;;;4.50;;
70444;SDS011;57902;49.638;11.070;2023-02-28T06:10:26;10.27;;;4.65;;
70444;SDS011;57902;49.638;11.070;2023-02-28T06:12:53;13.68;;;4.68;;
70444;SDS011;57902;49.638;11.070;2023-02-28T06:15:20;12.10;;;4.50;;
70444;SDS011;57902;49.638;11.070;2023-02-28T06:17:47;11.63;;;4.95;;
70444;SDS011;57902;49.638;11.070;2023-02-28T06:20:13;11.00;;;4.78;;
70444;SDS011;57902;49.638;11.070;2023-02-28T06:22:40;11.98;;;4.53;;
70444;SDS011;57902;49.638;11.070;2023-02-28T06:25:06;12.38;;;4.40;;
70444;SDS011;57902;49.638;11.070;2023-02-28T06:27:33;15.05;;;4.00;;
70444;SDS011;57902;49.638;11.070;2023-02-28T06:30:00;13.57;;;4.95;;
70444;SDS011;57902;49.638;11.070;2023-02-28T06:32:26;14.15;;;5.20;;
70444;SDS011;57902;49.638;11.070;2023-02-28T06:34:53;13.98;;;5.57;;
70444;SDS011;57902;49.638;11.070;2023-02-28T06:37:19;11.88;;;4.90;;
70444;SDS011;57902;49.638;11.070;2023-02-28T06:39:46;13.85;;;5.18;;
70444;SDS011;57902;49.638;11.070;2023-02-28T06:42:12;11.75;;;4.65;;
70444;SDS011;57902;49.638;11.070;2023-02-28T06:44:39;17.38;;;6.15;;
70444;SDS011;57902;49.638;11.070;2023-02-28T06:47:05;15.27;;;6.60;;
70444;SDS011;57902;49.638;11.070;2023-02-28T06:49:33;18.42;;;6.72;;
70444;SDS011;57902;49.638;11.070;2023-02-28T06:52:02;13.98;;;5.90;;
70444;SDS011;57902;49.638;11.070;2023-02-28T06:54:29;11.65;;;5.25;;
70444;SDS011;57902;49.638;11.070;2023-02-28T06:56:56;15.10;;;5.30;;
70444;SDS011;57902;49.638;11.070;2023-02-28T06:59:24;13.15;;;5.35;;
70444;SDS011;57902;49.638;11.070;2023-02-28T07:01:50;12.68;;;5.03;;
70444;SDS011;57902;49.638;11.070;2023-02-28T07:04:17;14.70;;;5.40;;
70444;SDS011;57902;49.638;11.070;2023-02-28T07:06:43;14.52;;;4.72;;
70444;SDS011;57902;49.638;11.070;2023-02-28T07:09:10;14.35;;;5.15;;
70444;SDS011;57902;49.638;11.070;2023-02-28T07:11:37;13.88;;;5.20;;
70444;SDS011;57902;49.638;11.070;2023-02-28T07:14:03;15.18;;;6.57;;
70444;SDS011;57902;49.638;11.070;2023-02-28T07:16:30;10.00;;;4.68;;
70444;SDS011;57902;49.638;11.070;2023-02-28T07:18:56;11.23;;;4.32;;
70444;SDS011;57902;49.638;11.070;2023-02-28T07:21:23;12.38;;;5.68;;
70444;SDS011;57902;49.638;11.070;2023-02-28T07:23:49;12.50;;;4.55;;
70444;SDS011;57902;49.638;11.070;2023-02-28T07:26:16;25.10;;;11.15;;
70444;SDS011;57902;49.638;11.070;2023-02-28T07:28:46;17.42;;;7.32;;
70444;SDS011;57902;49.638;11.070;2023-02-28T07:31:13;28.70;;;10.27;;
70444;SDS011;57902;49.638;11.070;2023-02-28T07:33:41;20.58;;;8.68;;
70444;SDS011;57902;49.638;11.070;2023-02-28T07:36:13;14.63;;;6.18;;
70444;SDS011;57902;49.638;11.070;2023-02-28T07:38:45;16.02;;;6.78;;
70444;SDS011;57902;49.638;11.070;2023-02-28T07:41:20;16.27;;;6.68;;
70444;SDS011;57902;49.638;11.070;2023-02-28T07:43:47;16.75;;;6.38;;
70444;SDS011;57902;49.638;11.070;2023-02-28T07:46:15;22.20;;;8.93;;
70444;SDS011;57902;49.638;11.070;2023-02-28T07:48:43;13.13;;;5.47;;
70444;SDS011;57902;49.638;11.070;2023-02-28T07:51:10;26.92;;;9.93;;
70444;SDS011;57902;49.638;11.070;2023-02-28T07:53:36;28.17;;;9.38;;
70444;SDS011;57902;49.638;11.070;2023-02-28T07:56:03;39.20;;;11.55;;
70444;SDS011;57902;49.638;11.070;2023-02-28T07:58:30;15.60;;;5.97;;
70444;SDS011;57902;49.638;11.070;2023-02-28T08:00:57;16.38;;;6.85;;
70444;SDS011;57902;49.638;11.070;2023-02-28T08:03:31;17.13;;;7.00;;
70444;SDS011;57902;49.638;11.070;2023-02-28T08:05:57;17.20;;;6.32;;
70444;SDS011;57902;49.638;11.070;2023-02-28T08:08:24;14.65;;;6.40;;
70444;SDS011;57902;49.638;11.070;2023-02-28T08:11:01;24.73;;;6.85;;
70444;SDS011;57902;49.638;11.070;2023-02-28T08:13:29;10.52;;;4.03;;
70444;SDS011;57902;49.638;11.070;2023-02-28T08:15:56;11.48;;;4.65;;
70444;SDS011;57902;49.638;11.070;2023-02-28T08:18:23;18.45;;;6.35;;
70444;SDS011;57902;49.638;11.070;2023-02-28T08:20:50;10.60;;;4.60;;
70444;SDS011;57902;49.638;11.070;2023-02-28T08:23:16;9.75;;;4.40;;
70444;SDS011;57902;49.638;11.070;2023-02-28T08:25:43;21.02;;;8.85;;
70444;SDS011;57902;49.638;11.070;2023-02-28T08:28:09;12.30;;;5.55;;
70444;SDS011;57902;49.638;11.070;2023-02-28T08:30:35;14.10;;;5.03;;
70444;SDS011;57902;49.638;11.070;2023-02-28T08:33:02;15.60;;;5.95;;
70444;SDS011;57902;49.638;11.070;2023-02-28T08:35:29;10.05;;;4.20;;
70444;SDS011;57902;49.638;11.070;2023-02-28T08:37:56;8.88;;;4.03;;
70444;SDS011;57902;49.638;11.070;2023-02-28T08:40:22;14.88;;;6.10;;
70444;SDS011;57902;49.638;11.070;2023-02-28T08:42:48;13.52;;;4.50;;
70444;SDS011;57902;49.638;11.070;2023-02-28T08:45:15;10.98;;;3.92;;
70444;SDS011;57902;49.638;11.070;2023-02-28T08:47:42;10.50;;;4.25;;
70444;SDS011;57902;49.638;11.070;2023-02-28T08:50:08;11.32;;;4.75;;
70444;SDS011;57902;49.638;11.070;2023-02-28T08:52:35;10.75;;;4.38;;
70444;SDS011;57902;49.638;11.070;2023-02-28T08:55:02;10.90;;;4.65;;
70444;SDS011;57902;49.638;11.070;2023-02-28T08:57:29;9.73;;;4.30;;
70444;SDS011;57902;49.638;11.070;2023-02-28T08:59:55;13.95;;;4.90;;
70444;SDS011;57902;49.638;11.070;2023-02-28T09:02:21;28.38;;;5.53;;
70444;SDS011;57902;49.638;11.070;2023-02-28T09:04:48;14.68;;;4.97;;
70444;SDS011;57902;49.638;11.070;2023-02-28T09:07:14;12.32;;;4.70;;
70444;SDS011;57902;49.638;11.070;2023-02-28T09:09:41;12.55;;;4.57;;
70444;SDS011;57902;49.638;11.070;2023-02-28T09:12:23;12.23;;;4.85;;
70444;SDS011;57902;49.638;11.070;2023-02-28T09:14:51;10.73;;;4.30;;
70444;SDS011;57902;49.638;11.070;2023-02-28T09:17:19;9.75;;;4.32;;
70444;SDS011;57902;49.638;11.070;2023-02-28T09:19:47;12.73;;;4.50;;
70444;SDS011;57902;49.638;11.070;2023-02-28T09:22:15;8.10;;;3.88;;
70444;SDS011;57902;49.638;11.070;2023-02-28T09:24:42;10.07;;;4.22;;
70444;SDS011;57902;49.638;11.070;2023-02-28T09:27:08;8.70;;;3.80;;
70444;SDS011;57902;49.638;11.070;2023-02-28T09:29:35;10.02;;;4.13;;
70444;SDS011;57902;49.638;11.070;2023-02-28T09:32:02;9.75;;;4.05;;
70444;SDS011;57902;49.638;11.070;2023-02-28T09:34:29;8.75;;;3.85;;
70444;SDS011;57902;49.638;11.070;2023-02-28T09:36:57;11.65;;;3.75;;
70444;SDS011;57902;49.638;11.070;2023-02-28T09:39:23;9.27;;;3.63;;
70444;SDS011;57902;49.638;11.070;2023-02-28T09:41:52;10.65;;;3.80;;
70444;SDS011;57902;49.638;11.070;2023-02-28T09:47:01;13.85;;;4.47;;
70444;SDS011;57902;49.638;11.070;2023-02-28T09:49:41;10.52;;;3.88;;
70444;SDS011;57902;49.638;11.070;2023-02-28T09:52:11;9.25;;;3.90;;
70444;SDS011;57902;49.638;11.070;2023-02-28T09:55:15;13.45;;;4.35;;
70444;SDS011;57902;49.638;11.070;2023-02-28T09:57:46;10.05;;;3.53;;
70444;SDS011;57902;49.638;11.070;2023-02-28T10:00:14;10.02;;;3.95;;
70444;SDS011;57902;49.638;11.070;2023-02-28T10:05:49;10.43;;;4.60;;
70444;SDS011;57902;49.638;11.070;2023-02-28T10:08:32;13.55;;;4.93;;
70444;SDS011;57902;49.638;11.070;2023-02-28T10:11:07;10.38;;;3.65;;
70444;SDS011;57902;49.638;11.070;2023-02-28T10:22:22;14.05;;;5.38;;
70444;SDS011;57902;49.638;11.070;2023-02-28T10:24:54;9.65;;;3.95;;
70444;SDS011;57902;49.638;11.070;2023-02-28T10:27:30;9.30;;;3.92;;
70444;SDS011;57902;49.638;11.070;2023-02-28T10:29:59;11.63;;;4.35;;
70444;SDS011;57902;49.638;11.070;2023-02-28T10:37:38;11.07;;;3.67;;
70444;SDS011;57902;49.638;11.070;2023-02-28T10:40:07;11.60;;;4.32;;
70444;SDS011;57902;49.638;11.070;2023-02-28T10:43:03;10.65;;;3.92;;
70444;SDS011;57902;49.638;11.070;2023-02-28T10:45:32;9.73;;;4.38;;
70444;SDS011;57902;49.638;11.070;2023-02-28T10:48:03;14.93;;;6.68;;
70444;SDS011;57902;49.638;11.070;2023-02-28T10:50:51;8.10;;;3.70;;
70444;SDS011;57902;49.638;11.070;2023-02-28T10:56:04;11.27;;;3.88;;
70444;SDS011;57902;49.638;11.070;2023-02-28T11:01:39;10.38;;;4.05;;
70444;SDS011;57902;49.638;11.070;2023-02-28T11:04:42;9.35;;;3.75;;
70444;SDS011;57902;49.638;11.070;2023-02-28T11:07:06;12.70;;;4.65;;
70444;SDS011;57902;49.638;11.070;2023-02-28T11:09:52;12.20;;;4.57;;
70444;SDS011;57902;49.638;11.070;2023-02-28T11:12:24;16.30;;;6.10;;
70444;SDS011;57902;49.638;11.070;2023-02-28T11:14:56;11.38;;;3.97;;
70444;SDS011;57902;49.638;11.070;2023-02-28T11:17:26;8.50;;;3.45;;
70444;SDS011;57902;49.638;11.070;2023-02-28T11:19:56;9.20;;;3.83;;
70444;SDS011;57902;49.638;11.070;2023-02-28T11:22:28;23.98;;;5.43;;
70444;SDS011;57902;49.638;11.070;2023-02-28T11:24:59;11.13;;;4.38;;
70444;SDS011;57902;49.638;11.070;2023-02-28T11:29:56;16.90;;;5.05;;
70444;SDS011;57902;49.638;11.070;2023-02-28T11:32:24;11.32;;;4.13;;
70444;SDS011;57902;49.638;11.070;2023-02-28T11:37:51;12.00;;;3.95;;
70444;SDS011;57902;49.638;11.070;2023-02-28T11:40:18;19.67;;;4.72;;
70444;SDS011;57902;49.638;11.070;2023-02-28T11:43:16;8.55;;;3.58;;
70444;SDS011;57902;49.638;11.070;2023-02-28T11:48:27;14.43;;;5.03;;
70444;SDS011;57902;49.638;11.070;2023-02-28T11:51:17;8.45;;;3.50;;
70444;SDS011;57902;49.638;11.070;2023-02-28T11:53:50;12.95;;;4.45;;
70444;SDS011;57902;49.638;11.070;2023-02-28T11:56:36;8.52;;;3.50;;
70444;SDS011;57902;49.638;11.070;2023-02-28T12:04:55;7.75;;;3.10;;
70444;SDS011;57902;49.638;11.070;2023-02-28T12:10:21;18.13;;;4.43;;
70444;SDS011;57902;49.638;11.070;2023-02-28T12:21:39;8.88;;;3.42;;
70444;SDS011;57902;49.638;11.070;2023-02-28T12:26:52;10.80;;;4.10;;
70444;SDS011;57902;49.638;11.070;2023-02-28T12:29:28;9.95;;;4.38;;
70444;SDS011;57902;49.638;11.070;2023-02-28T12:32:20;11.70;;;4.25;;
70444;SDS011;57902;49.638;11.070;2023-02-28T12:37:37;9.30;;;3.63;;
70444;SDS011;57902;49.638;11.070;2023-02-28T12:40:13;11.68;;;4.18;;
70444;SDS011;57902;49.638;11.070;2023-02-28T12:42:48;11.88;;;3.70;;
70444;SDS011;57902;49.638;11.070;2023-02-28T12:45:23;12.05;;;4.05;;
70444;SDS011;57902;49.638;11.070;2023-02-28T12:47:56;11.05;;;4.05;;
70444;SDS011;57902;49.638;11.070;2023-02-28T12:50:27;10.52;;;4.28;;
70444;SDS011;57902;49.638;11.070;2023-02-28T12:55:45;10.23;;;4.10;;
70444;SDS011;57902;49.638;11.070;2023-02-28T13:01:17;9.70;;;4.05;;
70444;SDS011;57902;49.638;11.070;2023-02-28T13:09:57;13.90;;;5.00;;
70444;SDS011;57902;49.638;11.070;2023-02-28T13:12:25;10.27;;;4.18;;
70444;SDS011;57902;49.638;11.070;2023-02-28T13:15:04;11.10;;;4.20;;
70444;SDS011;57902;49.638;11.070;2023-02-28T13:17:38;13.25;;;3.97;;
70444;SDS011;57902;49.638;11.070;2023-02-28T13:20:17;11.57;;;5.05;;
70444;SDS011;57902;49.638;11.070;2023-02-28T13:22:55;11.05;;;4.40;;
70444;SDS011;57902;49.638;11.070;2023-02-28T13:28:11;11.27;;;4.38;;
70444;SDS011;57902;49.638;11.070;2023-02-28T13:33:30;13.30;;;4.35;;
70444;SDS011;57902;49.638;11.070;2023-02-28T13:36:31;11.35;;;4.10;;
70444;SDS011;57902;49.638;11.070;2023-02-28T13:38:59;12.63;;;4.30;;
70444;SDS011;57902;49.638;11.070;2023-02-28T13:44:13;12.77;;;4.80;;
70444;SDS011;57902;49.638;11.070;2023-02-28T13:51:49;13.57;;;5.03;;
70444;SDS011;57902;49.638;11.070;2023-02-28T13:54:32;11.80;;;4.45;;
70444;SDS011;57902;49.638;11.070;2023-02-28T14:11:41;9.05;;;4.15;;
70444;SDS011;57902;49.638;11.070;2023-02-28T14:14:41;10.82;;;4.38;;
70444;SDS011;57902;49.638;11.070;2023-02-28T14:17:03;11.70;;;4.32;;
70444;SDS011;57902;49.638;11.070;2023-02-28T14:19:32;10.00;;;3.85;;
70444;SDS011;57902;49.638;11.070;2023-02-28T14:30:40;11.80;;;3.90;;
70444;SDS011;57902;49.638;11.070;2023-02-28T14:38:42;15.13;;;4.40;;
70444;SDS011;57902;49.638;11.070;2023-02-28T14:41:14;9.90;;;3.70;;
70444;SDS011;57902;49.638;11.070;2023-02-28T14:43:52;8.60;;;3.22;;
70444;SDS011;57902;49.638;11.070;2023-02-28T14:48:49;8.45;;;3.75;;
70444;SDS011;57902;49.638;11.070;2023-02-28T14:51:20;11.63;;;4.28;;
70444;SDS011;57902;49.638;11.070;2023-02-28T14:53:57;14.52;;;5.07;;
70444;SDS011;57902;49.638;11.070;2023-02-28T14:56:34;9.65;;;3.97;;
70444;SDS011;57902;49.638;11.070;2023-02-28T14:59:03;10.77;;;3.83;;
70444;SDS011;57902;49.638;11.070;2023-02-28T15:01:31;9.13;;;3.95;;
70444;SDS011;57902;49.638;11.070;2023-02-28T15:04:04;12.48;;;4.50;;
70444;SDS011;57902;49.638;11.070;2023-02-28T15:06:33;11.82;;;3.88;;
70444;SDS011;57902;49.638;11.070;2023-02-28T15:09:06;13.48;;;5.05;;
70444;SDS011;57902;49.638;11.070;2023-02-28T15:11:51;8.93;;;4.22;;
70444;SDS011;57902;49.638;11.070;2023-02-28T15:14:18;14.52;;;4.50;;
70444;SDS011;57902;49.638;11.070;2023-02-28T15:16:57;10.70;;;4.05;;
70444;SDS011;57902;49.638;11.070;2023-02-28T15:19:30;12.80;;;4.85;;
70444;SDS011;57902;49.638;11.070;2023-02-28T15:22:06;12.00;;;4.60;;
70444;SDS011;57902;49.638;11.070;2023-02-28T15:24:42;14.48;;;5.10;;
70444;SDS011;57902;49.638;11.070;2023-02-28T15:27:13;10.80;;;4.60;;
70444;SDS011;57902;49.638;11.070;2023-02-28T15:29:48;9.80;;;4.35;;
70444;SDS011;57902;49.638;11.070;2023-02-28T15:32:23;12.05;;;4.80;;
70444;SDS011;57902;49.638;11.070;2023-02-28T15:35:40;13.07;;;5.57;;
70444;SDS011;57902;49.638;11.070;2023-02-28T15:40:38;10.23;;;4.65;;
70444;SDS011;57902;49.638;11.070;2023-02-28T15:43:14;12.32;;;4.40;;
70444;SDS011;57902;49.638;11.070;2023-02-28T15:45:49;13.30;;;4.38;;
70444;SDS011;57902;49.638;11.070;2023-02-28T15:48:18;16.45;;;6.22;;
70444;SDS011;57902;49.638;11.070;2023-02-28T15:50:51;13.65;;;5.07;;
70444;SDS011;57902;49.638;11.070;2023-02-28T15:53:22;12.60;;;5.05;;
70444;SDS011;57902;49.638;11.070;2023-02-28T15:55:53;11.23;;;4.65;;
70444;SDS011;57902;49.638;11.070;2023-02-28T15:58:24;14.80;;;5.43;;
70444;SDS011;57902;49.638;11.070;2023-02-28T16:01:04;19.50;;;7.32;;
70444;SDS011;57902;49.638;11.070;2023-02-28T16:03:38;17.10;;;5.78;;
70444;SDS011;57902;49.638;11.070;2023-02-28T16:06:24;17.02;;;5.75;;
70444;SDS011;57902;49.638;11.070;2023-02-28T16:08:57;16.60;;;5.82;;
70444;SDS011;57902;49.638;11.070;2023-02-28T16:11:23;13.38;;;5.45;;
70444;SDS011;57902;49.638;11.070;2023-02-28T16:13:50;13.60;;;5.18;;
70444;SDS011;57902;49.638;11.070;2023-02-28T16:16:19;14.50;;;6.47;;
70444;SDS011;57902;49.638;11.070;2023-02-28T16:18:47;16.00;;;7.05;;
70444;SDS011;57902;49.638;11.070;2023-02-28T16:21:14;16.73;;;5.95;;
70444;SDS011;57902;49.638;11.070;2023-02-28T16:23:41;33.38;;;8.65;;
70444;SDS011;57902;49.638;11.070;2023-02-28T16:26:08;21.40;;;6.45;;
70444;SDS011;57902;49.638;11.070;2023-02-28T16:28:44;59.97;;;16.48;;
70444;SDS011;57902;49.638;11.070;2023-02-28T16:31:11;23.83;;;9.07;;
70444;SDS011;57902;49.638;11.070;2023-02-28T16:33:43;17.55;;;6.68;;
70444;SDS011;57902;49.638;11.070;2023-02-28T16:36:15;13.35;;;5.85;;
70444;SDS011;57902;49.638;11.070;2023-02-28T16:38:46;13.38;;;5.50;;
70444;SDS011;57902;49.638;11.070;2023-02-28T16:41:14;20.00;;;7.10;;
70444;SDS011;57902;49.638;11.070;2023-02-28T16:43:46;15.00;;;6.43;;
70444;SDS011;57902;49.638;11.070;2023-02-28T16:46:15;16.02;;;5.68;;
70444;SDS011;57902;49.638;11.070;2023-02-28T16:48:46;14.27;;;6.40;;
70444;SDS011;57902;49.638;11.070;2023-02-28T16:51:17;16.23;;;7.03;;
70444;SDS011;57902;49.638;11.070;2023-02-28T16:53:44;16.98;;;6.68;;
70444;SDS011;57902;49.638;11.070;2023-02-28T16:56:17;16.58;;;6.47;;
70444;SDS011;57902;49.638;11.070;2023-02-28T16:58:46;12.35;;;5.78;;
70444;SDS011;57902;49.638;11.070;2023-02-28T17:01:13;20.60;;;7.05;;
70444;SDS011;57902;49.638;11.070;2023-02-28T17:03:41;14.90;;;6.82;;
70444;SDS011;57902;49.638;11.070;2023-02-28T17:06:16;24.08;;;6.43;;
70444;SDS011;57902;49.638;11.070;2023-02-28T17:08:45;13.57;;;5.43;;